Flight Track Log - Related Links

Times and Time Zones

All times are in EDT time to prevent confusion due to time zone crossing. See the N102WY flight status page for this flight to view local times or setup timezone preferences in your user account.

Time Position Orientation Groundspeed Altitude Reporting Facility
EDT Latitude Longitude Course Direction KTS MPH feet Rate Location/Type
17:16 41.5417 -109.0822 119° Southeast 242 278 10,100  Level Denver Center
17:17 41.5050 -108.9922 119° Southeast 275 316 11,700 2,238 Climbing Salt Lake Center
17:18 41.4892 -108.8667 100° East 298 343 14,800 2,565 Climbing Salt Lake Center
17:19 41.4897 -108.7611 90° East 299 344 17,000 1,984 Climbing Salt Lake Center
17:20 41.4961 -108.6256 86° East 326 375 18,900 2,032 Climbing Salt Lake Center
17:21 41.4914 -108.5050 93° East 335 386 21,200 2,274 Climbing Salt Lake Center
17:22 41.4806 -108.3636 96° East 342 394 23,600 2,081 Climbing Salt Lake Center
17:23 41.4706 -108.2403 96° East 348 400 25,500 1,984 Climbing Salt Lake Center
17:24 41.4600 -108.0942 95° East 354 407 27,700 2,000 Climbing Salt Lake Center
17:25 41.4514 -107.9667 95° East 356 410 29,600 1,854 Climbing Denver Center
17:26 41.4425 -107.8422 95° East 353 406 31,500 1,610 Climbing Denver Center
17:27 41.4336 -107.7181 95° East 353 406 32,900 726 Climbing Denver Center
17:28 41.4217 -107.5597 96° East 382 440 33,000 48 Climbing Denver Center
17:29 41.4106 -107.3961 95° East 395 455 33,000  Level Denver Center
17:30 41.3997 -107.2553 96° East 398 458 33,000  Level Denver Center
17:31 41.3864 -107.0911 96° East 399 459 33,000  Level Denver Center
17:32 41.3719 -106.8994 96° East 408 470 33,000  Level Denver Center
17:33 41.3617 -106.7575 95° East 404 465 33,000  Level Denver Center
17:35 41.3497 -106.6136 96° East 408 470 33,000 -339 Level Denver Center
17:36 41.3367 -106.4572 96° East 408 470 32,300 -878 Descending Denver Center
17:37 41.3236 -106.3072 97° East 423 487 31,200 -1,500 Descending Denver Center
17:38 41.3092 -106.1408 97° East 407 468 29,200 -2,064 Descending Denver Center
17:39 41.2961 -105.9808 96° East 393 452 26,900 -2,294 Descending Denver Center
17:40 41.2814 -105.8139 97° East 361 415 24,000 -2,338 Descending Denver Center
17:41 41.2708 -105.6903 96° East 354 407 21,600 -2,565 Descending Denver Center
17:42 41.2578 -105.5511 97° East 342 394 18,700 -2,419 Descending Denver Center
17:43 41.2475 -105.4353 97° East 335 386 16,600 -2,177 Descending Denver Center
17:44 41.2369 -105.3317 98° East 318 366 14,200 -1,742 Descending Denver Center
17:45 41.2250 -105.2169 98° East 301 346 13,000 -1,161 Descending Denver Center
17:47 41.1961 -105.0466 96° East  Level Estimated
17:54 41.1556 -104.8105 99° East  Level Estimated
17:55 41.1556 -104.8105 99° East  Level Estimated
17:56 41.1556 -104.8105 99° East  Level Estimated
17:57 41.1556 -104.8105 99° East  Level Estimated
17:58 41.1556 -104.8105 99° East  Level Estimated
17:59 41.1556 -104.8105 99° East  Level Estimated

Login

Don't have an account? Register now (free) for customized features, flight alerts, and more!